createdAt,value
2023-03-06T00:01:34.293Z,71.82
2023-03-06T00:04:00.902Z,73.36
2023-03-06T00:06:27.570Z,72.97
2023-03-06T00:08:54.626Z,72.11
2023-03-06T00:11:21.289Z,72.52
2023-03-06T00:13:47.919Z,72.44
2023-03-06T00:16:14.987Z,72.00
2023-03-06T00:18:44.015Z,71.05
2023-03-06T00:21:10.628Z,71.83
2023-03-06T00:23:37.275Z,70.75
2023-03-06T00:26:09.993Z,70.93
2023-03-06T00:28:38.113Z,70.31
2023-03-06T00:31:04.937Z,70.33
2023-03-06T00:33:31.572Z,71.46
2023-03-06T00:35:58.221Z,71.14
2023-03-06T00:38:27.511Z,70.82
2023-03-06T00:40:56.383Z,70.24
2023-03-06T00:43:23.025Z,70.74
2023-03-06T00:45:49.656Z,70.59
2023-03-06T00:48:17.364Z,70.30
2023-03-06T00:50:44.019Z,70.49
2023-03-06T00:53:13.219Z,71.08
2023-03-06T00:55:43.692Z,72.54
2023-03-06T00:58:10.273Z,72.42
2023-03-06T01:00:37.460Z,73.44
2023-03-06T01:03:04.817Z,73.76
2023-03-06T01:05:35.106Z,72.91
2023-03-06T01:08:01.759Z,71.03
2023-03-06T01:10:28.712Z,71.16
2023-03-06T01:12:55.912Z,70.96
2023-03-06T01:15:23.195Z,71.99
2023-03-06T01:17:54.717Z,70.91
2023-03-06T01:20:21.430Z,70.97
2023-03-06T01:22:48.106Z,73.97
2023-03-06T01:25:14.897Z,74.15
2023-03-06T01:27:42.527Z,73.76
2023-03-06T01:30:11.336Z,72.72
2023-03-06T01:32:38.609Z,72.34
2023-03-06T01:35:06.450Z,72.69
2023-03-06T01:37:36.046Z,73.21
2023-03-06T01:40:04.426Z,73.40
2023-03-06T01:42:32.201Z,72.13
2023-03-06T01:45:07.188Z,71.83
2023-03-06T01:47:34.915Z,71.95
2023-03-06T01:50:04.065Z,73.06
2023-03-06T01:52:35.530Z,71.93
2023-03-06T01:55:09.626Z,72.62
2023-03-06T01:57:44.422Z,72.65
2023-03-06T02:00:16.839Z,71.16
2023-03-06T02:03:15.831Z,72.34
2023-03-06T02:05:43.759Z,71.94
2023-03-06T02:08:13.226Z,71.39
2023-03-06T02:10:57.146Z,71.85
2023-03-06T02:13:23.797Z,72.52
2023-03-06T02:15:52.012Z,72.50
2023-03-06T02:18:19.618Z,73.03
2023-03-06T02:20:51.080Z,72.77
2023-03-06T02:23:56.653Z,72.11
2023-03-06T02:26:24.464Z,72.63
2023-03-06T02:28:51.066Z,71.64
2023-03-06T02:31:29.097Z,72.00
2023-03-06T02:34:14.134Z,71.88
2023-03-06T02:36:49.232Z,72.32
2023-03-06T02:39:19.991Z,72.26
2023-03-06T02:41:46.621Z,71.99
2023-03-06T02:44:14.471Z,72.55
2023-03-06T02:46:42.401Z,73.96
2023-03-06T02:49:09.921Z,74.25
2023-03-06T02:51:36.538Z,72.51
2023-03-06T02:54:03.176Z,72.02
2023-03-06T02:56:29.990Z,72.48
2023-03-06T02:58:57.324Z,74.00
2023-03-06T03:01:25.105Z,73.81
2023-03-06T03:03:52.328Z,74.32
2023-03-06T03:06:20.999Z,73.08
2023-03-06T03:08:48.764Z,73.33
2023-03-06T03:11:16.099Z,73.48
2023-03-06T03:13:44.295Z,73.85
2023-03-06T03:16:19.047Z,74.43
2023-03-06T03:18:47.826Z,74.44
2023-03-06T03:21:16.498Z,73.86
2023-03-06T03:23:44.335Z,74.40
2023-03-06T03:26:17.293Z,75.08
2023-03-06T03:28:48.909Z,74.86
2023-03-06T03:31:18.404Z,75.44
2023-03-06T03:33:45.284Z,73.83
2023-03-06T03:36:12.946Z,73.88
2023-03-06T03:38:44.306Z,73.30
2023-03-06T03:41:11.379Z,75.12
2023-03-06T03:43:38.084Z,73.98
2023-03-06T03:46:06.039Z,73.95
2023-03-06T03:48:32.980Z,74.00
2023-03-06T03:51:13.097Z,74.29
2023-03-06T03:53:44.952Z,73.81
2023-03-06T03:56:14.144Z,74.10
2023-03-06T03:58:50.035Z,74.47
2023-03-06T04:01:16.952Z,74.75
2023-03-06T04:03:43.783Z,74.84
2023-03-06T04:06:11.668Z,75.75
2023-03-06T04:08:39.122Z,74.79
2023-03-06T04:11:06.205Z,74.58
2023-03-06T04:13:32.971Z,74.17
2023-03-06T04:15:59.946Z,75.45
2023-03-06T04:18:28.994Z,75.11
2023-03-06T04:20:59.605Z,75.00
2023-03-06T04:23:27.900Z,75.33
2023-03-06T04:25:55.329Z,75.57
2023-03-06T04:28:22.953Z,75.07
2023-03-06T04:30:49.935Z,74.93
2023-03-06T04:33:17.505Z,74.34
2023-03-06T04:35:44.734Z,74.39
2023-03-06T04:38:17.480Z,74.74
2023-03-06T04:40:45.028Z,75.47
2023-03-06T04:43:12.267Z,76.94
2023-03-06T04:45:39.073Z,76.77
2023-03-06T04:48:06.089Z,76.45
2023-03-06T04:50:32.845Z,76.66
2023-03-06T04:53:01.842Z,76.38
2023-03-06T04:55:28.892Z,77.10
2023-03-06T04:57:56.060Z,76.70
2023-03-06T05:00:25.250Z,76.13
2023-03-06T05:02:52.442Z,76.42
2023-03-06T05:05:19.119Z,77.00
2023-03-06T05:07:45.828Z,76.52
2023-03-06T05:10:16.164Z,75.86
2023-03-06T05:12:43.430Z,76.36
2023-03-06T05:15:11.662Z,75.99
2023-03-06T05:17:39.018Z,74.92
2023-03-06T05:20:10.113Z,74.34
2023-03-06T05:22:36.793Z,75.58
2023-03-06T05:25:04.885Z,75.55
2023-03-06T05:27:31.692Z,76.14
2023-03-06T05:29:58.568Z,76.02
2023-03-06T05:32:25.231Z,76.83
2023-03-06T05:34:51.976Z,76.32
2023-03-06T05:37:18.640Z,76.04
2023-03-06T05:39:45.544Z,76.15
2023-03-06T05:42:12.146Z,75.80
2023-03-06T05:44:38.746Z,75.37
2023-03-06T05:47:05.681Z,75.91
2023-03-06T05:49:34.968Z,75.53
2023-03-06T05:52:06.717Z,76.23
2023-03-06T05:54:34.781Z,76.39
2023-03-06T05:57:02.714Z,74.43
2023-03-06T05:59:29.344Z,74.35
2023-03-06T06:01:56.538Z,74.21
2023-03-06T06:04:25.132Z,74.79
2023-03-06T06:06:54.456Z,74.61
2023-03-06T06:09:22.446Z,74.38
2023-03-06T06:12:09.493Z,73.45
2023-03-06T06:14:36.410Z,74.36
2023-03-06T06:17:03.188Z,73.16
2023-03-06T06:19:31.621Z,72.07
2023-03-06T06:21:58.695Z,71.92
2023-03-06T06:24:26.620Z,72.62
2023-03-06T06:26:55.139Z,73.35
2023-03-06T06:29:22.904Z,71.95
2023-03-06T06:31:49.757Z,71.70
2023-03-06T06:34:16.941Z,70.20
2023-03-06T06:36:44.127Z,71.29
2023-03-06T06:39:13.529Z,71.28
2023-03-06T06:41:56.917Z,70.55
2023-03-06T06:44:27.141Z,69.75
2023-03-06T06:49:40.561Z,68.86
2023-03-06T06:52:07.386Z,69.55
2023-03-06T06:54:34.777Z,70.80
2023-03-06T06:57:01.656Z,68.00
2023-03-06T06:59:28.268Z,68.27
2023-03-06T07:01:54.877Z,68.82
2023-03-06T07:04:21.585Z,65.46
2023-03-06T07:06:48.420Z,70.90
2023-03-06T07:09:15.036Z,68.59
2023-03-06T07:11:41.724Z,65.48
2023-03-06T07:14:08.576Z,63.82
2023-03-06T07:16:35.293Z,63.92
2023-03-06T07:19:03.339Z,63.26
2023-03-06T07:21:30.406Z,64.57
2023-03-06T07:23:57.689Z,64.51
2023-03-06T07:26:28.010Z,63.81
2023-03-06T07:28:55.037Z,63.96
2023-03-06T07:31:24.475Z,64.49
2023-03-06T07:33:52.870Z,62.86
2023-03-06T07:36:20.987Z,63.23
2023-03-06T07:38:48.008Z,63.53
2023-03-06T07:41:16.370Z,62.25
2023-03-06T07:43:45.132Z,63.40
2023-03-06T07:46:14.179Z,61.72
2023-03-06T07:48:41.733Z,60.05
2023-03-06T07:51:14.193Z,60.30
2023-03-06T07:53:40.888Z,61.13
2023-03-06T07:56:09.061Z,59.51
2023-03-06T07:58:37.742Z,59.82
2023-03-06T08:01:11.820Z,57.88
2023-03-06T08:03:39.222Z,57.76
2023-03-06T08:06:12.836Z,57.26
2023-03-06T08:08:41.086Z,57.36
2023-03-06T08:11:09.247Z,57.28
2023-03-06T08:13:36.519Z,57.62
2023-03-06T08:16:03.399Z,55.25
2023-03-06T08:18:30.060Z,55.95
2023-03-06T08:21:11.409Z,54.86
2023-03-06T08:23:38.867Z,54.87
2023-03-06T08:26:12.558Z,54.25
2023-03-06T08:28:39.394Z,54.80
2023-03-06T08:31:20.084Z,54.92
2023-03-06T08:33:47.084Z,55.35
2023-03-06T08:36:13.714Z,54.85
2023-03-06T08:38:40.385Z,53.69
2023-03-06T08:41:07.038Z,52.81
2023-03-06T08:43:35.720Z,52.74
2023-03-06T08:46:02.636Z,50.07
2023-03-06T08:48:30.504Z,50.58
2023-03-06T08:50:57.145Z,49.34
2023-03-06T08:53:42.145Z,48.42
2023-03-06T08:56:19.953Z,48.78
2023-03-06T08:58:47.578Z,48.36
2023-03-06T09:01:23.245Z,46.72
2023-03-06T09:03:50.717Z,47.55
2023-03-06T09:06:17.497Z,47.46
2023-03-06T09:08:44.634Z,47.02
2023-03-06T09:11:13.292Z,47.89
2023-03-06T09:13:40.661Z,45.38
2023-03-06T09:16:08.922Z,45.02
2023-03-06T09:18:36.058Z,45.74
2023-03-06T09:21:05.642Z,45.25
2023-03-06T09:23:32.693Z,45.69
2023-03-06T09:26:00.647Z,41.83
2023-03-06T09:28:27.573Z,42.39
2023-03-06T09:30:54.723Z,44.17
2023-03-06T09:33:21.525Z,41.91
2023-03-06T09:35:51.059Z,41.17
2023-03-06T09:38:18.888Z,40.65
2023-03-06T09:40:55.340Z,42.25
2023-03-06T09:43:29.104Z,40.71
2023-03-06T09:45:57.172Z,41.83
2023-03-06T09:48:38.211Z,40.60
2023-03-06T09:51:15.128Z,39.90
2023-03-06T09:54:17.150Z,38.94
2023-03-06T09:56:48.943Z,38.81
2023-03-06T09:59:23.328Z,40.63
2023-03-06T10:02:09.488Z,41.96
2023-03-06T10:04:42.456Z,39.81
2023-03-06T10:07:21.567Z,39.35
2023-03-06T10:09:57.182Z,39.66
2023-03-06T10:12:35.646Z,40.04
2023-03-06T10:15:19.539Z,41.11
2023-03-06T10:17:46.288Z,40.64
2023-03-06T10:20:19.018Z,40.16
2023-03-06T10:22:52.538Z,40.53
2023-03-06T10:25:33.519Z,39.92
2023-03-06T10:28:12.344Z,40.36
2023-03-06T10:31:00.433Z,38.32
2023-03-06T10:33:46.755Z,37.88
2023-03-06T10:36:18.655Z,39.54
2023-03-06T10:38:48.376Z,38.62
2023-03-06T10:41:35.232Z,37.42
2023-03-06T10:44:04.986Z,38.02
2023-03-06T10:46:37.275Z,39.09
2023-03-06T10:49:24.722Z,39.66
2023-03-06T10:52:03.394Z,40.52
2023-03-06T10:54:33.378Z,37.78
2023-03-06T10:57:18.807Z,37.07
2023-03-06T10:59:54.506Z,39.73
2023-03-06T11:02:25.912Z,40.19
2023-03-06T11:04:54.258Z,41.36
2023-03-06T11:07:34.825Z,40.17
2023-03-06T11:10:20.940Z,40.16
2023-03-06T11:13:02.990Z,40.21
2023-03-06T11:15:30.122Z,40.28
2023-03-06T11:18:04.902Z,40.07
2023-03-06T11:20:51.158Z,40.87
2023-03-06T11:23:21.045Z,42.51
2023-03-06T11:25:54.756Z,42.75
2023-03-06T11:28:27.413Z,41.94
2023-03-06T11:31:00.274Z,42.55
2023-03-06T11:33:36.348Z,43.47
2023-03-06T11:36:12.070Z,44.85
2023-03-06T11:38:49.451Z,45.91
2023-03-06T11:41:26.745Z,44.78
2023-03-06T11:43:58.015Z,43.78
2023-03-06T11:46:33.227Z,44.34
2023-03-06T11:49:16.949Z,45.09
2023-03-06T11:51:51.511Z,45.85
2023-03-06T11:54:18.141Z,45.29
2023-03-06T11:56:55.139Z,45.16
2023-03-06T11:59:59.658Z,46.37
2023-03-06T12:02:39.911Z,44.91
2023-03-06T12:05:32.674Z,45.93
2023-03-06T12:08:37.262Z,45.97
2023-03-06T12:14:19.308Z,45.10
2023-03-06T12:17:28.973Z,46.48
2023-03-06T12:20:07.904Z,45.20
2023-03-06T12:22:57.975Z,45.65
2023-03-06T12:25:36.589Z,46.48
2023-03-06T12:28:29.676Z,45.26
2023-03-06T12:31:04.703Z,46.18
2023-03-06T12:33:58.611Z,47.22
2023-03-06T12:36:52.721Z,46.16
2023-03-06T12:39:43.102Z,47.94
2023-03-06T12:42:48.580Z,47.83
2023-03-06T12:45:21.405Z,47.71
2023-03-06T12:47:51.289Z,47.25
2023-03-06T12:50:26.161Z,47.79
2023-03-06T12:52:56.033Z,47.90
2023-03-06T12:55:25.911Z,48.65
2023-03-06T12:57:53.963Z,48.51
2023-03-06T13:00:33.965Z,49.61
2023-03-06T13:03:44.884Z,49.40
2023-03-06T13:06:44.989Z,49.57
2023-03-06T13:09:29.676Z,49.87
2023-03-06T13:12:25.202Z,48.35
2023-03-06T13:15:30.474Z,49.60
2023-03-06T13:17:57.327Z,52.44
2023-03-06T13:20:39.452Z,49.31
2023-03-06T13:23:35.139Z,49.76
2023-03-06T13:26:25.933Z,50.15
2023-03-06T13:28:57.915Z,49.74
2023-03-06T13:31:33.888Z,49.50
2023-03-06T13:34:06.233Z,49.15
2023-03-06T13:36:33.646Z,49.22
2023-03-06T13:39:11.001Z,50.71
2023-03-06T13:41:44.982Z,49.94
2023-03-06T13:44:40.776Z,49.16
2023-03-06T13:47:30.960Z,50.70
2023-03-06T13:49:58.929Z,50.62
2023-03-06T13:52:38.277Z,50.59
2023-03-06T13:55:29.949Z,50.95
2023-03-06T13:57:56.540Z,50.76
2023-03-06T14:01:00.360Z,51.87
2023-03-06T14:03:48.439Z,51.27
2023-03-06T14:06:42.337Z,53.09
2023-03-06T14:09:27.300Z,52.25
2023-03-06T14:12:16.840Z,52.14
2023-03-06T14:14:48.670Z,52.95
2023-03-06T14:17:24.187Z,54.02
2023-03-06T14:19:51.514Z,54.29
2023-03-06T14:22:23.035Z,53.43
2023-03-06T14:25:01.333Z,54.04
2023-03-06T14:27:51.400Z,55.23
2023-03-06T14:30:21.309Z,53.37
2023-03-06T14:32:50.819Z,54.10
2023-03-06T14:35:29.440Z,56.83
2023-03-06T14:38:00.640Z,55.37
2023-03-06T14:40:35.252Z,54.79
2023-03-06T14:43:26.972Z,55.13
2023-03-06T14:45:59.658Z,56.57
2023-03-06T14:48:41.291Z,58.00
2023-03-06T14:51:17.008Z,57.41
2023-03-06T14:53:45.711Z,57.24
2023-03-06T14:56:17.611Z,56.38
2023-03-06T14:59:01.168Z,55.91
2023-03-06T15:01:40.466Z,56.34
2023-03-06T15:04:36.621Z,57.61
2023-03-06T15:07:09.476Z,57.97
2023-03-06T15:09:38.537Z,57.83
2023-03-06T15:12:31.116Z,57.23
2023-03-06T15:15:03.941Z,57.88
2023-03-06T15:17:38.104Z,58.56
2023-03-06T15:20:08.023Z,57.83
2023-03-06T15:22:41.827Z,57.82
2023-03-06T15:25:20.658Z,57.98
2023-03-06T15:27:50.444Z,57.23
2023-03-06T15:30:33.679Z,56.39
2023-03-06T15:33:09.229Z,56.33
2023-03-06T15:35:37.952Z,57.04
2023-03-06T15:38:39.354Z,57.13
2023-03-06T15:41:07.660Z,57.26
2023-03-06T15:43:40.669Z,57.91
2023-03-06T15:46:07.732Z,58.73
2023-03-06T15:48:35.427Z,59.99
2023-03-06T15:51:03.338Z,60.10
2023-03-06T15:53:30.449Z,59.07
2023-03-06T15:55:58.731Z,60.25
2023-03-06T15:58:30.659Z,60.06
2023-03-06T16:00:57.372Z,60.22
2023-03-06T16:03:23.982Z,60.00
2023-03-06T16:05:50.622Z,61.42
2023-03-06T16:08:17.275Z,63.35
2023-03-06T16:10:45.649Z,63.26
2023-03-06T16:13:22.049Z,63.80
2023-03-06T16:15:50.347Z,64.03
2023-03-06T16:18:18.202Z,62.88
2023-03-06T16:20:44.914Z,62.66
2023-03-06T16:23:11.621Z,63.53
2023-03-06T16:25:40.846Z,64.15
2023-03-06T16:28:12.570Z,63.56
2023-03-06T16:30:39.263Z,65.54
2023-03-06T16:33:06.082Z,65.15
2023-03-06T16:35:32.679Z,65.63
2023-03-06T16:38:00.104Z,66.73
2023-03-06T16:40:37.737Z,65.55
2023-03-06T16:43:05.362Z,66.24
2023-03-06T16:45:36.441Z,68.34
2023-03-06T16:48:03.657Z,68.97
2023-03-06T16:50:33.944Z,68.16
2023-03-06T16:53:00.652Z,68.89
2023-03-06T16:55:28.106Z,67.80
2023-03-06T16:57:54.928Z,68.43
2023-03-06T17:00:24.577Z,68.50
2023-03-06T17:02:52.351Z,68.08
2023-03-06T17:05:19.758Z,68.87
2023-03-06T17:07:47.152Z,69.08
2023-03-06T17:10:16.668Z,69.61
2023-03-06T17:12:43.609Z,69.22
2023-03-06T17:15:11.556Z,69.67
2023-03-06T17:17:38.439Z,69.95
2023-03-06T17:20:11.801Z,68.53
2023-03-06T17:22:38.823Z,68.73
2023-03-06T17:25:06.858Z,68.86
2023-03-06T17:27:34.494Z,68.60
2023-03-06T17:30:01.371Z,69.29
2023-03-06T17:32:28.491Z,70.17
2023-03-06T17:34:55.164Z,71.24
2023-03-06T17:37:21.906Z,72.50
2023-03-06T17:39:48.563Z,73.18
2023-03-06T17:42:15.578Z,73.95
2023-03-06T17:44:42.166Z,74.63
2023-03-06T17:47:08.746Z,75.16
2023-03-06T17:49:35.466Z,76.53
2023-03-06T17:52:02.868Z,77.28
2023-03-06T17:54:30.136Z,77.54
2023-03-06T17:57:01.060Z,78.07
2023-03-06T17:59:28.308Z,77.67
2023-03-06T18:01:59.104Z,77.40
2023-03-06T18:04:26.497Z,77.69
2023-03-06T18:06:53.271Z,77.54
2023-03-06T18:09:20.049Z,77.08
2023-03-06T18:11:46.702Z,77.13
2023-03-06T18:14:13.386Z,76.59
2023-03-06T18:16:40.100Z,77.54
2023-03-06T18:19:06.777Z,77.57
2023-03-06T18:21:33.392Z,78.33
2023-03-06T18:24:00.091Z,79.47
2023-03-06T18:26:28.518Z,79.25
2023-03-06T18:29:04.411Z,78.65
2023-03-06T18:31:34.803Z,78.11
2023-03-06T18:34:04.722Z,77.32
2023-03-06T18:36:33.152Z,76.99
2023-03-06T18:39:03.610Z,76.41
2023-03-06T18:41:31.047Z,77.31
2023-03-06T18:43:59.628Z,78.40
2023-03-06T18:46:30.762Z,78.22
2023-03-06T18:48:57.411Z,77.38
2023-03-06T18:51:24.040Z,77.61
2023-03-06T18:53:50.681Z,79.71
2023-03-06T18:56:20.277Z,79.85
2023-03-06T18:58:47.488Z,79.52
2023-03-06T19:01:14.537Z,78.68
2023-03-06T19:03:41.584Z,77.35
2023-03-06T19:06:10.776Z,78.52
2023-03-06T19:08:38.633Z,79.73
2023-03-06T19:11:10.859Z,81.61
2023-03-06T19:13:38.424Z,83.50
2023-03-06T19:16:06.052Z,83.24
2023-03-06T19:18:33.021Z,84.52
2023-03-06T19:21:16.348Z,85.09
2023-03-06T19:23:43.331Z,86.40
2023-03-06T19:26:10.763Z,87.05
2023-03-06T19:28:39.511Z,86.68
2023-03-06T19:31:12.795Z,86.88
2023-03-06T19:33:40.001Z,87.53
2023-03-06T19:36:09.534Z,87.61
2023-03-06T19:38:36.560Z,88.46
2023-03-06T19:41:03.708Z,88.43
2023-03-06T19:43:31.156Z,87.88
2023-03-06T19:45:58.270Z,88.05
2023-03-06T19:48:25.209Z,89.08
2023-03-06T19:50:52.388Z,89.98
2023-03-06T19:53:19.417Z,90.58
2023-03-06T19:55:46.292Z,91.87
2023-03-06T19:58:12.916Z,93.11
2023-03-06T20:00:39.657Z,93.24
2023-03-06T20:03:06.348Z,93.05
2023-03-06T20:05:33.081Z,94.48
2023-03-06T20:07:59.662Z,94.58
2023-03-06T20:10:26.604Z,95.51
2023-03-06T20:12:53.538Z,95.73
2023-03-06T20:15:22.259Z,96.05
2023-03-06T20:17:52.089Z,95.61
2023-03-06T20:20:21.442Z,96.01
2023-03-06T20:22:48.500Z,95.84
2023-03-06T20:25:15.558Z,96.65
2023-03-06T20:27:42.605Z,97.49
2023-03-06T20:30:09.755Z,96.77
2023-03-06T20:32:38.585Z,96.66
2023-03-06T20:35:05.915Z,96.85
2023-03-06T20:37:34.944Z,97.69
2023-03-06T20:40:01.853Z,97.30
2023-03-06T20:42:33.816Z,96.30
2023-03-06T20:45:00.664Z,97.11
2023-03-06T20:47:27.681Z,98.02
2023-03-06T20:49:54.750Z,98.13
2023-03-06T20:52:21.456Z,96.93
2023-03-06T20:54:48.307Z,97.68
2023-03-06T20:57:15.104Z,97.80
2023-03-06T20:59:45.189Z,98.22
2023-03-06T21:02:15.363Z,97.93
2023-03-06T21:04:42.218Z,97.91
2023-03-06T21:07:09.289Z,98.88
2023-03-06T21:09:37.751Z,98.45
2023-03-06T21:12:05.325Z,99.14
2023-03-06T21:14:32.117Z,97.98
2023-03-06T21:17:01.321Z,98.26
2023-03-06T21:19:28.390Z,99.22
2023-03-06T21:21:55.409Z,100.00
2023-03-06T21:24:24.799Z,99.34
2023-03-06T21:26:53.985Z,99.87
2023-03-06T21:29:23.041Z,100.00
2023-03-06T21:31:49.799Z,100.00
2023-03-06T21:34:19.121Z,100.00
2023-03-06T21:36:45.776Z,100.00
2023-03-06T21:39:12.475Z,100.00
2023-03-06T21:41:40.523Z,100.00
2023-03-06T21:44:07.740Z,100.00
2023-03-06T21:46:35.169Z,100.00
2023-03-06T21:49:04.344Z,100.00
2023-03-06T21:51:31.708Z,100.00
2023-03-06T21:53:59.074Z,100.00
2023-03-06T21:56:28.368Z,100.00
2023-03-06T21:58:56.298Z,100.00
2023-03-06T22:01:29.060Z,100.00
2023-03-06T22:04:00.508Z,100.00
2023-03-06T22:06:29.487Z,100.00
2023-03-06T22:08:57.332Z,100.00
2023-03-06T22:11:25.813Z,100.00
2023-03-06T22:13:55.062Z,100.00
2023-03-06T22:16:21.983Z,100.00
2023-03-06T22:18:50.664Z,100.00
2023-03-06T22:21:19.588Z,100.00
2023-03-06T22:23:57.726Z,100.00
2023-03-06T22:26:26.328Z,100.00
2023-03-06T22:28:53.358Z,100.00
2023-03-06T22:31:25.603Z,100.00
2023-03-06T22:33:53.910Z,100.00
2023-03-06T22:36:21.909Z,100.00
2023-03-06T22:38:49.213Z,100.00
2023-03-06T22:41:17.630Z,100.00
2023-03-06T22:43:44.293Z,100.00
2023-03-06T22:46:16.124Z,100.00
2023-03-06T22:48:43.576Z,100.00
2023-03-06T22:51:13.164Z,100.00
2023-03-06T22:53:40.618Z,100.00
2023-03-06T22:56:09.776Z,100.00
2023-03-06T22:58:37.538Z,100.00
2023-03-06T23:01:13.415Z,100.00
2023-03-06T23:03:42.269Z,100.00
2023-03-06T23:06:23.672Z,100.00
2023-03-06T23:08:57.266Z,100.00
2023-03-06T23:11:24.960Z,100.00
2023-03-06T23:14:14.956Z,100.00
2023-03-06T23:17:00.346Z,100.00
2023-03-06T23:19:45.594Z,100.00
2023-03-06T23:22:30.721Z,100.00
2023-03-06T23:25:16.371Z,100.00
2023-03-06T23:27:42.965Z,100.00
2023-03-06T23:30:10.400Z,100.00
2023-03-06T23:32:37.117Z,100.00
2023-03-06T23:35:04.626Z,100.00
2023-03-06T23:37:31.210Z,100.00
2023-03-06T23:39:58.158Z,100.00
2023-03-06T23:42:24.858Z,100.00
2023-03-06T23:44:51.676Z,100.00
2023-03-06T23:47:20.034Z,100.00
2023-03-06T23:49:46.609Z,100.00
2023-03-06T23:52:13.200Z,100.00
2023-03-06T23:54:39.817Z,100.00
2023-03-06T23:57:06.760Z,100.00
2023-03-06T23:59:33.373Z,100.00
